Time;durP1;ratioP1;P1;durP2;ratioP2;P2;SDS_P1;SDS_P2;PMS_P1;PMS_P2;Temp;Humidity;BMP_temperature;BMP_pressure;BME280_temperature;BME280_humidity;BME280_pressure;Samples;Min_cycle;Max_cycle;Signal;HPM_P1;HPM_P2
2021/04/20 00:02:29;;;;;;;37.72;26.50;;;;;;;;;;4890900;29;20040;-78
2021/04/20 00:05:15;;;;;;;46.08;30.35;;;;;;;;;;4885193;29;20466;-76
2021/04/20 00:08:00;;;;;;;41.78;28.33;;;;;;;;;;4884329;29;20483;-77
2021/04/20 00:10:46;;;;;;;37.42;26.80;;;;;;;;;;4892104;29;20040;-78
2021/04/20 00:13:32;;;;;;;38.35;26.58;;;;;;;;;;4890810;29;20491;-76
2021/04/20 00:16:17;;;;;;;38.33;26.35;;;;;;;;;;4887833;29;20171;-79
2021/04/20 00:19:03;;;;;;;41.20;28.55;;;;;;;;;;4889515;29;20047;-79
2021/04/20 00:21:49;;;;;;;34.72;24.35;;;;;;;;;;4886138;29;20039;-77
2021/04/20 00:24:34;;;;;;;34.67;25.77;;;;;;;;;;4895238;29;20032;-80
2021/04/20 00:27:19;;;;;;;34.85;24.45;;;;;;;;;;4887245;29;20043;-78
2021/04/20 00:30:05;;;;;;;38.97;26.23;;;;;;;;;;4884236;29;20035;-78
2021/04/20 00:32:51;;;;;;;38.42;27.58;;;;;;;;;;4886124;29;20028;-79
2021/04/20 00:35:36;;;;;;;37.20;27.42;;;;;;;;;;4891041;29;20116;-78
2021/04/20 00:38:21;;;;;;;42.22;29.55;;;;;;;;;;4884694;29;20038;-78
2021/04/20 00:41:08;;;;;;;38.65;26.90;;;;;;;;;;4889075;29;20479;-78
2021/04/20 00:43:53;;;;;;;50.22;33.25;;;;;;;;;;4890382;29;20028;-78
2021/04/20 00:46:38;;;;;;;48.70;30.98;;;;;;;;;;4905610;29;20115;-78
2021/04/20 00:49:24;;;;;;;37.30;26.60;;;;;;;;;;4887215;29;20063;-78
2021/04/20 00:52:09;;;;;;;41.15;28.25;;;;;;;;;;4884796;29;20380;-78
2021/04/20 00:54:54;;;;;;;42.75;28.67;;;;;;;;;;4892207;29;20100;-78
2021/04/20 00:57:39;;;;;;;37.42;25.77;;;;;;;;;;4904787;29;20087;-77
2021/04/20 01:00:28;;;;;;;37.90;26.52;;;;;;;;;;4891860;29;20571;-77
2021/04/20 01:03:13;;;;;;;37.90;26.58;;;;;;;;;;4881708;29;20126;-77
2021/04/20 01:05:59;;;;;;;44.38;30.60;;;;;;;;;;4886430;29;20113;-77
2021/04/20 01:08:45;;;;;;;35.28;26.70;;;;;;;;;;4886476;29;20087;-77
2021/04/20 01:11:31;;;;;;;36.90;26.17;;;;;;;;;;4893544;29;20080;-77
2021/04/20 01:14:17;;;;;;;42.25;27.67;;;;;;;;;;4889489;29;21243;-78
2021/04/20 01:17:02;;;;;;;36.28;24.58;;;;;;;;;;4883927;29;20665;-78
2021/04/20 01:19:48;;;;;;;38.33;27.58;;;;;;;;;;4888576;29;20027;-79
2021/04/20 01:22:35;;;;;;;44.58;27.95;;;;;;;;;;4891626;29;20035;-79
2021/04/20 01:25:20;;;;;;;36.33;24.92;;;;;;;;;;4890358;29;20506;-80
2021/04/20 01:28:06;;;;;;;37.83;26.10;;;;;;;;;;4888126;29;20024;-77
2021/04/20 01:30:51;;;;;;;37.03;25.75;;;;;;;;;;4888407;29;20028;-79
2021/04/20 01:33:36;;;;;;;39.72;26.65;;;;;;;;;;4901718;29;20039;-77
2021/04/20 01:36:22;;;;;;;40.30;26.92;;;;;;;;;;4887416;29;20032;-78
2021/04/20 01:39:09;;;;;;;37.95;27.38;;;;;;;;;;4882294;29;20032;-78
2021/04/20 01:41:54;;;;;;;43.03;28.40;;;;;;;;;;4902833;29;20518;-78
2021/04/20 01:44:40;;;;;;;37.58;26.02;;;;;;;;;;4879476;29;20574;-79
2021/04/20 01:47:26;;;;;;;44.25;30.17;;;;;;;;;;4885246;29;20043;-77
2021/04/20 01:50:11;;;;;;;44.30;29.08;;;;;;;;;;4884060;29;20411;-78
2021/04/20 01:52:56;;;;;;;37.35;26.50;;;;;;;;;;4885627;29;20032;-78
2021/04/20 01:55:42;;;;;;;34.72;24.00;;;;;;;;;;4885862;29;20035;-77
2021/04/20 01:58:28;;;;;;;36.70;26.02;;;;;;;;;;4892301;29;20028;-78
2021/04/20 02:01:15;;;;;;;37.03;25.90;;;;;;;;;;4887536;29;20067;-78
2021/04/20 02:04:00;;;;;;;35.85;25.88;;;;;;;;;;4898346;29;20020;-77
2021/04/20 02:06:45;;;;;;;34.70;25.67;;;;;;;;;;4886222;29;20032;-78
2021/04/20 02:09:31;;;;;;;38.83;26.25;;;;;;;;;;4890983;29;20024;-77
2021/04/20 02:12:16;;;;;;;35.03;23.77;;;;;;;;;;4890177;29;20056;-78
2021/04/20 02:15:02;;;;;;;35.78;24.92;;;;;;;;;;4878669;29;20032;-78
2021/04/20 02:17:47;;;;;;;37.83;25.45;;;;;;;;;;4893298;29;20054;-78
2021/04/20 02:20:34;;;;;;;27.88;20.77;;;;;;;;;;4893512;29;20059;-79
2021/04/20 02:23:20;;;;;;;24.65;19.15;;;;;;;;;;4893661;29;20040;-77
2021/04/20 02:26:07;;;;;;;32.17;23.08;;;;;;;;;;4883303;29;20364;-77
2021/04/20 02:28:55;;;;;;;29.17;21.40;;;;;;;;;;4892081;29;20031;-78
2021/04/20 02:31:41;;;;;;;31.48;21.73;;;;;;;;;;4889274;29;20092;-77
2021/04/20 02:34:27;;;;;;;31.38;23.15;;;;;;;;;;4892011;29;20032;-77
2021/04/20 02:37:13;;;;;;;29.25;21.05;;;;;;;;;;4884588;29;20341;-77
2021/04/20 02:39:58;;;;;;;29.55;20.92;;;;;;;;;;4890187;29;20482;-78
2021/04/20 02:42:44;;;;;;;28.80;21.90;;;;;;;;;;4907306;29;20390;-78
2021/04/20 02:45:29;;;;;;;32.80;23.17;;;;;;;;;;4891557;29;20039;-77
2021/04/20 02:48:14;;;;;;;35.80;25.42;;;;;;;;;;4888658;29;20043;-79
2021/04/20 02:51:00;;;;;;;36.08;25.73;;;;;;;;;;4893028;29;20031;-78
2021/04/20 02:53:46;;;;;;;37.25;26.15;;;;;;;;;;4893862;29;20797;-78
2021/04/20 02:56:32;;;;;;;32.55;22.50;;;;;;;;;;4893294;29;20036;-78
2021/04/20 02:59:17;;;;;;;39.05;25.13;;;;;;;;;;4887694;29;20032;-77
2021/04/20 03:02:03;;;;;;;35.17;23.40;;;;;;;;;;4886116;29;20108;-79
2021/04/20 03:04:50;;;;;;;40.78;26.58;;;;;;;;;;4895451;29;20028;-77
2021/04/20 03:07:35;;;;;;;36.63;25.58;;;;;;;;;;4885666;29;20352;-77
2021/04/20 03:10:21;;;;;;;37.92;24.23;;;;;;;;;;4885478;29;20020;-78
2021/04/20 03:13:06;;;;;;;44.50;28.50;;;;;;;;;;4889709;29;20048;-78
2021/04/20 03:15:52;;;;;;;39.10;26.10;;;;;;;;;;4895588;29;20091;-77
2021/04/20 03:18:38;;;;;;;37.05;26.63;;;;;;;;;;4883584;29;20028;-76
2021/04/20 03:21:23;;;;;;;36.90;25.02;;;;;;;;;;4889092;29;20023;-78
2021/04/20 03:24:17;;;;;;;39.35;27.85;;;;;;;;;;4885176;29;20027;-79
2021/04/20 03:27:05;;;;;;;38.47;27.05;;;;;;;;;;4891383;29;20032;-77
2021/04/20 03:29:50;;;;;;;38.20;28.27;;;;;;;;;;4886101;29;20032;-77
2021/04/20 03:32:36;;;;;;;43.70;28.98;;;;;;;;;;4886178;29;20167;-77
2021/04/20 03:35:31;;;;;;;31.10;23.92;;;;;;;;;;4885194;29;20027;-77
2021/04/20 03:38:38;;;;;;;38.20;28.38;;;;;;;;;;4892110;29;20066;-78
2021/04/20 03:41:28;;;;;;;31.20;24.20;;;;;;;;;;4893220;29;20063;-77
2021/04/20 03:44:16;;;;;;;29.08;22.50;;;;;;;;;;4884887;29;20036;-76
2021/04/20 03:47:03;;;;;;;29.73;22.33;;;;;;;;;;4891480;29;20024;-78
2021/04/20 03:49:49;;;;;;;33.17;24.67;;;;;;;;;;4889233;29;20530;-77
2021/04/20 03:53:01;;;;;;;29.02;23.60;;;;;;;;;;4884362;29;20028;-78
2021/04/20 03:55:50;;;;;;;26.88;20.45;;;;;;;;;;4888795;29;20467;-79
2021/04/20 03:58:37;;;;;;;26.08;20.63;;;;;;;;;;4888949;29;20108;-77
2021/04/20 04:01:23;;;;;;;28.40;21.83;;;;;;;;;;4874672;29;20024;-76
2021/04/20 04:04:10;;;;;;;27.08;21.55;;;;;;;;;;4892871;29;20032;-77
2021/04/20 04:06:55;;;;;;;25.10;20.10;;;;;;;;;;4887651;29;20024;-77
2021/04/20 04:09:41;;;;;;;25.08;20.17;;;;;;;;;;4893098;29;20028;-77
2021/04/20 04:12:26;;;;;;;27.38;21.73;;;;;;;;;;4903315;29;20041;-77
2021/04/20 04:15:13;;;;;;;27.05;21.17;;;;;;;;;;4884671;29;20088;-77
2021/04/20 04:18:00;;;;;;;30.65;21.85;;;;;;;;;;4889793;29;20020;-78
2021/04/20 04:20:48;;;;;;;25.73;20.55;;;;;;;;;;4878355;29;20027;-77
2021/04/20 04:23:42;;;;;;;25.23;19.52;;;;;;;;;;4894657;29;20709;-77
2021/04/20 04:26:28;;;;;;;26.90;21.33;;;;;;;;;;4892181;29;20515;-76
2021/04/20 04:29:14;;;;;;;22.58;17.92;;;;;;;;;;4892964;29;20043;-77
2021/04/20 04:31:59;;;;;;;26.98;20.27;;;;;;;;;;4900445;29;20028;-76
2021/04/20 04:34:46;;;;;;;28.27;20.45;;;;;;;;;;4886480;29;20048;-77
2021/04/20 04:37:32;;;;;;;29.45;20.65;;;;;;;;;;4885911;29;20035;-76
2021/04/20 04:40:18;;;;;;;29.52;21.05;;;;;;;;;;4882842;29;20025;-76
2021/04/20 04:43:04;;;;;;;24.58;20.50;;;;;;;;;;4887709;29;20103;-76
2021/04/20 04:45:49;;;;;;;27.67;22.15;;;;;;;;;;4887861;29;20416;-77
2021/04/20 04:48:35;;;;;;;25.20;20.60;;;;;;;;;;4893318;29;20036;-77
2021/04/20 04:51:20;;;;;;;28.05;22.27;;;;;;;;;;4885394;29;20448;-77
2021/04/20 04:54:10;;;;;;;29.10;20.92;;;;;;;;;;4895291;29;20020;-76
2021/04/20 04:56:56;;;;;;;25.27;20.50;;;;;;;;;;4904039;29;20012;-76
2021/04/20 04:59:42;;;;;;;25.77;20.90;;;;;;;;;;4891091;29;20028;-77
2021/04/20 05:02:27;;;;;;;26.52;19.23;;;;;;;;;;4886131;29;20438;-77
2021/04/20 05:05:15;;;;;;;24.42;17.55;;;;;;;;;;4900335;29;20442;-77
2021/04/20 05:08:00;;;;;;;24.20;18.77;;;;;;;;;;4885508;29;20398;-77
2021/04/20 05:10:45;;;;;;;29.05;21.05;;;;;;;;;;4893697;29;20107;-77
2021/04/20 05:13:31;;;;;;;31.13;20.35;;;;;;;;;;4891256;29;20055;-77
2021/04/20 05:16:18;;;;;;;25.58;19.75;;;;;;;;;;4890838;29;20032;-77
2021/04/20 05:19:03;;;;;;;28.35;21.42;;;;;;;;;;4876140;29;20028;-77
2021/04/20 05:21:48;;;;;;;22.73;18.08;;;;;;;;;;4888688;29;20036;-78
2021/04/20 05:24:34;;;;;;;23.23;18.90;;;;;;;;;;4884062;29;20047;-77
2021/04/20 05:27:19;;;;;;;23.45;19.35;;;;;;;;;;4892662;29;20115;-78
2021/04/20 05:30:05;;;;;;;24.52;19.77;;;;;;;;;;4886071;29;20032;-77
2021/04/20 05:32:52;;;;;;;25.60;18.48;;;;;;;;;;4901124;29;20059;-77
2021/04/20 05:35:37;;;;;;;21.02;17.50;;;;;;;;;;4890656;29;20036;-76
2021/04/20 05:38:23;;;;;;;21.38;17.10;;;;;;;;;;4889158;29;20107;-79
2021/04/20 05:41:08;;;;;;;23.23;18.42;;;;;;;;;;4903659;29;20555;-78
2021/04/20 05:43:54;;;;;;;23.83;19.10;;;;;;;;;;4904280;29;20093;-78
2021/04/20 05:46:41;;;;;;;23.08;18.63;;;;;;;;;;4879659;29;20063;-77
2021/04/20 05:49:27;;;;;;;23.48;18.63;;;;;;;;;;4885882;29;20032;-77
2021/04/20 05:52:12;;;;;;;27.13;20.80;;;;;;;;;;4907718;29;20123;-78
2021/04/20 05:54:58;;;;;;;25.60;20.85;;;;;;;;;;4887049;29;20032;-77
2021/04/20 05:57:44;;;;;;;25.25;20.55;;;;;;;;;;4881991;29;20031;-77
2021/04/20 06:00:29;;;;;;;22.42;18.65;;;;;;;;;;4883661;29;20040;-78
2021/04/20 06:03:15;;;;;;;21.33;18.23;;;;;;;;;;4885731;29;20032;-78
2021/04/20 06:06:04;;;;;;;22.58;17.30;;;;;;;;;;4883158;29;20198;-77
2021/04/20 06:08:52;;;;;;;19.92;16.88;;;;;;;;;;4888758;29;20168;-77
2021/04/20 06:11:38;;;;;;;21.25;17.15;;;;;;;;;;4875629;29;20052;-77
2021/04/20 06:14:23;;;;;;;22.23;18.40;;;;;;;;;;4879010;29;20111;-77
2021/04/20 06:17:13;;;;;;;22.40;18.70;;;;;;;;;;4888589;29;20075;-77
2021/04/20 06:19:58;;;;;;;22.60;18.33;;;;;;;;;;4887346;29;20416;-78
2021/04/20 06:22:47;;;;;;;22.08;16.65;;;;;;;;;;4890033;29;20035;-78
2021/04/20 06:25:33;;;;;;;21.58;17.05;;;;;;;;;;4885970;29;20028;-78
2021/04/20 06:28:18;;;;;;;24.20;20.55;;;;;;;;;;4891558;29;20038;-77
2021/04/20 06:31:04;;;;;;;28.27;23.38;;;;;;;;;;4880517;29;20024;-77
2021/04/20 06:33:50;;;;;;;22.45;18.65;;;;;;;;;;4886110;29;20028;-78
2021/04/20 06:36:36;;;;;;;20.92;17.77;;;;;;;;;;4879276;29;20052;-78
2021/04/20 06:39:22;;;;;;;21.10;17.42;;;;;;;;;;4877159;29;20713;-77
2021/04/20 06:42:12;;;;;;;21.13;18.85;;;;;;;;;;4882707;29;20032;-77
2021/04/20 06:45:04;;;;;;;21.90;17.60;;;;;;;;;;4884396;29;20024;-77
2021/04/20 06:47:58;;;;;;;21.13;17.95;;;;;;;;;;4883297;29;20092;-77
2021/04/20 06:50:44;;;;;;;25.10;19.15;;;;;;;;;;4887926;29;20100;-77
2021/04/20 06:53:33;;;;;;;22.42;19.60;;;;;;;;;;4879703;29;20059;-77
2021/04/20 06:56:22;;;;;;;25.13;21.15;;;;;;;;;;4900741;29;20488;-76
2021/04/20 06:59:10;;;;;;;22.63;18.27;;;;;;;;;;4890767;29;20048;-78
2021/04/20 07:01:55;;;;;;;27.50;20.63;;;;;;;;;;4887623;29;20020;-77
2021/04/20 07:04:43;;;;;;;30.17;23.75;;;;;;;;;;4884476;29;20039;-77
2021/04/20 07:07:32;;;;;;;38.58;32.60;;;;;;;;;;4888552;29;20616;-77
2021/04/20 07:10:19;;;;;;;26.02;21.15;;;;;;;;;;4889793;29;20068;-78
2021/04/20 07:13:10;;;;;;;28.10;23.42;;;;;;;;;;4891373;29;20071;-77
2021/04/20 07:16:19;;;;;;;25.05;21.23;;;;;;;;;;4890043;29;20039;-76
2021/04/20 07:19:04;;;;;;;29.58;22.50;;;;;;;;;;4888729;29;20024;-76
2021/04/20 07:21:53;;;;;;;30.65;22.67;;;;;;;;;;4891437;29;20361;-76
2021/04/20 07:24:39;;;;;;;25.33;20.33;;;;;;;;;;4897128;29;20095;-76
2021/04/20 07:27:27;;;;;;;31.83;23.42;;;;;;;;;;4887585;29;20043;-75
2021/04/20 07:30:15;;;;;;;31.08;25.20;;;;;;;;;;4888699;29;20126;-76
2021/04/20 07:33:09;;;;;;;29.45;23.08;;;;;;;;;;4882594;29;20509;-78
2021/04/20 07:36:17;;;;;;;31.38;24.92;;;;;;;;;;4889955;29;20039;-75
2021/04/20 07:39:02;;;;;;;27.58;22.98;;;;;;;;;;4889112;29;20497;-77
2021/04/20 07:42:23;;;;;;;29.13;23.02;;;;;;;;;;4899940;29;20547;-76
2021/04/20 07:45:13;;;;;;;31.42;26.73;;;;;;;;;;4851575;29;20108;-75
2021/04/20 07:48:22;;;;;;;30.38;24.30;;;;;;;;;;4890387;29;20024;-77
2021/04/20 07:51:09;;;;;;;33.13;24.67;;;;;;;;;;4891739;29;20024;-76
2021/04/20 07:54:06;;;;;;;29.75;24.08;;;;;;;;;;4885177;29;20045;-76
2021/04/20 07:56:59;;;;;;;29.27;25.00;;;;;;;;;;4887224;29;20137;-76
2021/04/20 08:00:20;;;;;;;42.28;35.60;;;;;;;;;;4889492;29;20059;-75
2021/04/20 08:03:11;;;;;;;34.83;26.45;;;;;;;;;;4852465;29;20025;-76
2021/04/20 08:06:05;;;;;;;29.13;22.20;;;;;;;;;;4886646;29;20040;-76
2021/04/20 08:08:52;;;;;;;31.33;23.60;;;;;;;;;;4873026;29;20029;-76
2021/04/20 08:11:51;;;;;;;27.75;22.45;;;;;;;;;;4906115;29;20568;-76
2021/04/20 08:14:49;;;;;;;27.00;20.63;;;;;;;;;;4884326;29;20031;-76
2021/04/20 08:17:40;;;;;;;28.63;23.23;;;;;;;;;;4887128;29;20028;-76
2021/04/20 08:20:26;;;;;;;25.35;21.52;;;;;;;;;;4888277;29;20502;-77
2021/04/20 08:23:13;;;;;;;26.88;22.30;;;;;;;;;;4885869;29;20044;-76
2021/04/20 08:26:27;;;;;;;23.95;20.55;;;;;;;;;;4886390;29;20036;-76
2021/04/20 08:29:40;;;;;;;23.10;18.17;;;;;;;;;;4885011;29;20040;-76
2021/04/20 08:32:27;;;;;;;25.35;20.88;;;;;;;;;;4900612;29;20032;-75
2021/04/20 08:35:15;;;;;;;24.85;19.92;;;;;;;;;;4879643;29;20133;-76
2021/04/20 08:38:07;;;;;;;26.10;20.17;;;;;;;;;;4891750;29;20033;-76
2021/04/20 08:41:06;;;;;;;23.25;19.05;;;;;;;;;;4890913;29;20127;-75
2021/04/20 08:43:55;;;;;;;22.42;19.25;;;;;;;;;;4891679;29;20028;-76
2021/04/20 08:46:47;;;;;;;20.75;17.02;;;;;;;;;;4884388;29;20040;-77
2021/04/20 08:49:51;;;;;;;22.02;17.60;;;;;;;;;;4890574;29;20032;-77
2021/04/20 08:52:49;;;;;;;21.27;17.02;;;;;;;;;;4892064;29;20024;-76
2021/04/20 08:55:57;;;;;;;22.20;19.77;;;;;;;;;;4890202;29;20035;-75
2021/04/20 08:58:59;;;;;;;23.85;19.23;;;;;;;;;;4881494;29;20031;-76
2021/04/20 09:01:50;;;;;;;20.90;17.05;;;;;;;;;;4889438;29;20032;-77
2021/04/20 09:04:57;;;;;;;19.83;16.10;;;;;;;;;;4889978;29;20036;-76
2021/04/20 09:07:45;;;;;;;23.27;17.30;;;;;;;;;;4882335;29;20123;-76
2021/04/20 09:10:38;;;;;;;22.58;18.23;;;;;;;;;;4887310;29;20119;-76
2021/04/20 09:13:26;;;;;;;20.05;16.58;;;;;;;;;;4881462;29;20492;-76
2021/04/20 09:16:13;;;;;;;22.45;18.65;;;;;;;;;;4886849;29;20031;-75
2021/04/20 09:18:59;;;;;;;24.10;19.38;;;;;;;;;;4889891;29;20028;-76
2021/04/20 09:21:50;;;;;;;24.95;20.65;;;;;;;;;;4885854;29;20103;-76
2021/04/20 09:24:47;;;;;;;25.60;22.30;;;;;;;;;;4883276;29;20036;-77
2021/04/20 09:27:44;;;;;;;28.30;22.40;;;;;;;;;;4887576;29;20663;-76
2021/04/20 09:30:59;;;;;;;25.35;20.50;;;;;;;;;;4891967;29;20062;-76
2021/04/20 09:33:54;;;;;;;25.00;20.08;;;;;;;;;;4885282;29;20127;-76
2021/04/20 09:36:40;;;;;;;25.48;19.52;;;;;;;;;;4890882;29;20028;-76
2021/04/20 09:39:27;;;;;;;25.25;19.98;;;;;;;;;;4882059;29;20088;-76
2021/04/20 09:42:12;;;;;;;25.00;18.27;;;;;;;;;;4884175;29;20036;-76
2021/04/20 09:45:16;;;;;;;23.20;17.90;;;;;;;;;;4891555;29;20499;-76
2021/04/20 09:48:26;;;;;;;20.45;16.23;;;;;;;;;;4888919;29;20040;-77
2021/04/20 09:51:11;;;;;;;;;;;;;;;;;;4887591;29;20479;-76
2021/04/20 09:54:03;;;;;;;21.67;16.58;;;;;;;;;;4886209;29;20326;-76
2021/04/20 09:57:05;;;;;;;21.35;17.05;;;;;;;;;;4885990;29;20059;-79
2021/04/20 09:59:57;;;;;;;21.00;15.98;;;;;;;;;;4900029;29;20463;-76
2021/04/20 10:02:43;;;;;;;20.98;17.70;;;;;;;;;;4890007;29;20039;-77
2021/04/20 10:05:28;;;;;;;28.08;23.33;;;;;;;;;;4901243;29;20107;-77
2021/04/20 10:08:35;;;;;;;24.05;17.92;;;;;;;;;;4890151;29;20028;-76
2021/04/20 10:11:20;;;;;;;18.58;15.55;;;;;;;;;;4885834;29;20044;-77
2021/04/20 10:14:25;;;;;;;21.85;16.63;;;;;;;;;;4887262;29;20415;-74
2021/04/20 10:17:24;;;;;;;20.17;16.85;;;;;;;;;;4886232;29;20107;-77
2021/04/20 10:20:20;;;;;;;22.05;17.05;;;;;;;;;;4875280;29;20040;-77
2021/04/20 10:23:17;;;;;;;20.20;16.42;;;;;;;;;;4887958;29;20083;-78
2021/04/20 10:26:07;;;;;;;19.83;17.27;;;;;;;;;;4889557;29;20372;-79
2021/04/20 10:28:56;;;;;;;21.63;18.35;;;;;;;;;;4879571;29;20442;-78
2021/04/20 10:31:47;;;;;;;23.75;15.43;;;;;;;;;;4890595;29;20032;-77
2021/04/20 10:34:34;;;;;;;18.08;15.35;;;;;;;;;;4892564;29;20027;-77
2021/04/20 10:37:20;;;;;;;17.85;15.63;;;;;;;;;;4899701;29;20346;-77
2021/04/20 10:40:08;;;;;;;20.98;15.52;;;;;;;;;;4888204;29;20024;-75
2021/04/20 10:42:53;;;;;;;17.13;14.63;;;;;;;;;;4891305;29;20028;-76
2021/04/20 10:45:40;;;;;;;19.20;14.30;;;;;;;;;;4894021;29;20039;-78
2021/04/20 10:48:27;;;;;;;20.98;15.32;;;;;;;;;;4888744;29;20475;-77
2021/04/20 10:51:13;;;;;;;20.33;13.95;;;;;;;;;;4889468;29;20044;-78
2021/04/20 10:53:58;;;;;;;21.85;13.98;;;;;;;;;;4884492;29;20036;-77
2021/04/20 10:56:53;;;;;;;17.17;14.05;;;;;;;;;;4883398;29;20047;-78
2021/04/20 10:59:40;;;;;;;17.48;12.35;;;;;;;;;;4895613;29;20028;-80
2021/04/20 11:02:36;;;;;;;17.60;13.57;;;;;;;;;;4892256;29;20071;-79
2021/04/20 11:05:22;;;;;;;17.10;12.90;;;;;;;;;;4888975;29;20039;-80
2021/04/20 11:08:07;;;;;;;15.80;12.05;;;;;;;;;;4893469;29;20059;-79
2021/04/20 11:10:53;;;;;;;16.98;11.98;;;;;;;;;;4881329;29;20028;-81
2021/04/20 11:13:38;;;;;;;16.52;12.75;;;;;;;;;;4896832;29;20028;-80
2021/04/20 11:16:36;;;;;;;19.42;13.48;;;;;;;;;;4883440;29;20032;-81
2021/04/20 11:19:21;;;;;;;15.20;12.60;;;;;;;;;;4888076;29;20032;-80
2021/04/20 11:22:06;;;;;;;16.60;12.73;;;;;;;;;;4888744;29;20033;-81
2021/04/20 11:24:55;;;;;;;18.40;13.13;;;;;;;;;;4899433;29;20047;-80
2021/04/20 11:27:41;;;;;;;14.05;12.00;;;;;;;;;;4889998;29;20072;-81
2021/04/20 11:30:37;;;;;;;17.13;12.45;;;;;;;;;;4889806;29;20530;-79
2021/04/20 11:33:26;;;;;;;14.27;10.70;;;;;;;;;;4888705;29;20126;-81
2021/04/20 11:36:34;;;;;;;12.93;11.52;;;;;;;;;;4891918;29;20024;-81
2021/04/20 11:39:24;;;;;;;14.15;11.40;;;;;;;;;;4890676;29;20028;-81
2021/04/20 11:42:23;;;;;;;15.57;11.23;;;;;;;;;;4893994;29;20020;-80
2021/04/20 11:45:17;;;;;;;13.00;10.63;;;;;;;;;;4888707;29;20028;-80
2021/04/20 11:48:08;;;;;;;11.40;9.65;;;;;;;;;;4882709;29;20036;-80
2021/04/20 11:50:58;;;;;;;13.85;10.15;;;;;;;;;;4892007;29;20708;-80
2021/04/20 11:53:48;;;;;;;15.45;10.35;;;;;;;;;;4900845;29;20074;-78
2021/04/20 11:56:35;;;;;;;16.35;11.25;;;;;;;;;;4890473;29;20063;-82
2021/04/20 11:59:21;;;;;;;16.48;11.38;;;;;;;;;;4888879;29;20035;-79
2021/04/20 12:02:06;;;;;;;15.77;11.93;;;;;;;;;;4885033;29;20084;-81
2021/04/20 12:04:52;;;;;;;17.70;10.77;;;;;;;;;;4889162;29;20043;-81
2021/04/20 12:07:38;;;;;;;12.85;10.52;;;;;;;;;;4893698;29;20575;-79
2021/04/20 12:10:24;;;;;;;13.10;10.30;;;;;;;;;;4890747;29;20491;-80
2021/04/20 12:13:09;;;;;;;13.30;9.82;;;;;;;;;;4888870;29;20215;-80
2021/04/20 12:15:56;;;;;;;13.60;9.50;;;;;;;;;;4893577;29;20545;-80
2021/04/20 12:18:46;;;;;;;12.18;8.93;;;;;;;;;;4890730;29;20034;-79
2021/04/20 12:21:36;;;;;;;12.30;9.30;;;;;;;;;;4885209;29;20075;-80
2021/04/20 12:24:23;;;;;;;11.25;8.13;;;;;;;;;;4888443;29;20024;-81
2021/04/20 12:27:08;;;;;;;11.40;8.93;;;;;;;;;;4886096;29;20071;-81
2021/04/20 12:29:54;;;;;;;12.93;9.65;;;;;;;;;;4887612;29;20028;-81
2021/04/20 12:32:40;;;;;;;21.08;18.45;;;;;;;;;;4905855;29;20432;-80
2021/04/20 12:35:26;;;;;;;13.30;9.98;;;;;;;;;;4880848;29;20476;-80
2021/04/20 12:38:12;;;;;;;13.05;9.68;;;;;;;;;;4886848;29;20044;-82
2021/04/20 12:41:02;;;;;;;14.43;8.73;;;;;;;;;;4886654;29;20067;-80
2021/04/20 12:43:47;;;;;;;;;;;;;;;;;;4895756;29;20035;-80
2021/04/20 12:46:33;;;;;;;12.68;8.63;;;;;;;;;;4879308;29;20559;-79
2021/04/20 12:49:21;;;;;;;9.43;7.72;;;;;;;;;;4882947;29;20032;-79
2021/04/20 12:52:07;;;;;;;9.40;6.90;;;;;;;;;;4887341;29;20039;-81
2021/04/20 12:54:56;;;;;;;10.95;8.00;;;;;;;;;;4886283;29;20024;-82
2021/04/20 12:57:43;;;;;;;11.05;7.97;;;;;;;;;;4889717;29;20064;-78
2021/04/20 13:00:30;;;;;;;10.70;7.82;;;;;;;;;;4888667;29;20036;-80
2021/04/20 13:03:20;;;;;;;10.38;6.57;;;;;;;;;;4884130;29;21534;-79
2021/04/20 13:06:09;;;;;;;8.90;5.93;;;;;;;;;;4880842;29;20032;-79
2021/04/20 13:08:55;;;;;;;9.07;6.28;;;;;;;;;;4904229;29;20036;-79
2021/04/20 13:11:40;;;;;;;10.52;7.45;;;;;;;;;;4892038;29;20044;-78
2021/04/20 13:14:26;;;;;;;8.30;6.53;;;;;;;;;;4890487;29;20028;-79
2021/04/20 13:17:19;;;;;;;8.20;6.30;;;;;;;;;;4886540;29;20103;-80
2021/04/20 13:20:24;;;;;;;8.18;6.35;;;;;;;;;;4881399;29;20020;-80
2021/04/20 13:23:19;;;;;;;7.75;5.03;;;;;;;;;;4888245;29;20032;-80
2021/04/20 13:26:05;;;;;;;8.20;5.40;;;;;;;;;;4884315;29;20032;-78
2021/04/20 13:28:51;;;;;;;8.18;5.90;;;;;;;;;;4887804;29;20028;-79
2021/04/20 13:31:38;;;;;;;8.13;5.30;;;;;;;;;;4888203;29;20096;-78
2021/04/20 13:34:25;;;;;;;8.07;6.03;;;;;;;;;;4885190;29;20028;-77
2021/04/20 13:37:12;;;;;;;7.10;5.20;;;;;;;;;;4882172;29;20106;-77
2021/04/20 13:39:58;;;;;;;8.70;5.13;;;;;;;;;;4889593;29;20027;-79
2021/04/20 13:42:46;;;;;;;9.30;5.80;;;;;;;;;;4887085;29;20088;-78
2021/04/20 13:45:33;;;;;;;7.50;4.60;;;;;;;;;;4888237;29;20670;-78
2021/04/20 13:48:23;;;;;;;8.00;4.93;;;;;;;;;;4894004;29;20512;-79
2021/04/20 13:51:09;;;;;;;9.18;6.30;;;;;;;;;;4881329;29;20030;-77
2021/04/20 13:53:56;;;;;;;8.40;5.90;;;;;;;;;;4886199;29;20396;-79
2021/04/20 13:56:42;;;;;;;8.43;5.80;;;;;;;;;;4894066;29;20448;-79
2021/04/20 13:59:30;;;;;;;7.72;5.32;;;;;;;;;;4890202;29;20027;-79
2021/04/20 14:02:17;;;;;;;6.25;5.03;;;;;;;;;;4883341;29;20051;-77
2021/04/20 14:05:04;;;;;;;10.93;5.75;;;;;;;;;;4903270;29;20036;-78
2021/04/20 14:07:52;;;;;;;8.77;5.43;;;;;;;;;;4883687;29;20032;-79
2021/04/20 14:10:39;;;;;;;9.20;5.85;;;;;;;;;;4893725;29;20094;-78
2021/04/20 14:13:25;;;;;;;7.85;5.55;;;;;;;;;;4890459;29;20075;-77
2021/04/20 14:16:13;;;;;;;8.88;6.53;;;;;;;;;;4890766;29;20741;-79
2021/04/20 14:18:58;;;;;;;12.68;8.57;;;;;;;;;;4892804;29;20092;-77
2021/04/20 14:21:44;;;;;;;12.90;7.75;;;;;;;;;;4897653;29;20503;-80
2021/04/20 14:24:30;;;;;;;9.02;5.70;;;;;;;;;;4892469;29;20032;-80
2021/04/20 14:27:15;;;;;;;11.82;5.68;;;;;;;;;;4892736;29;20028;-80
2021/04/20 14:30:02;;;;;;;8.95;5.88;;;;;;;;;;4888419;29;20035;-78
2021/04/20 14:32:48;;;;;;;7.90;5.15;;;;;;;;;;4895484;29;20408;-78
2021/04/20 14:35:35;;;;;;;7.47;5.15;;;;;;;;;;4890995;29;20056;-77
2021/04/20 14:38:34;;;;;;;8.20;5.45;;;;;;;;;;4888783;29;20110;-78
2021/04/20 14:41:21;;;;;;;8.35;6.25;;;;;;;;;;4892511;29;20016;-78
2021/04/20 14:44:36;;;;;;;10.40;7.35;;;;;;;;;;4891171;29;20034;-79
2021/04/20 14:47:25;;;;;;;12.98;9.98;;;;;;;;;;4892754;29;20148;-78
2021/04/20 14:50:11;;;;;;;11.02;8.77;;;;;;;;;;4887845;29;20027;-78
2021/04/20 14:52:59;;;;;;;13.50;9.82;;;;;;;;;;4893278;29;20072;-78
2021/04/20 14:56:04;;;;;;;16.08;13.23;;;;;;;;;;4890135;29;20017;-78
2021/04/20 14:58:51;;;;;;;14.13;11.02;;;;;;;;;;4896807;29;20024;-79
2021/04/20 15:01:37;;;;;;;14.38;11.13;;;;;;;;;;4906713;29;20099;-79
2021/04/20 15:04:23;;;;;;;14.60;10.27;;;;;;;;;;4886548;29;20040;-80
2021/04/20 15:07:27;;;;;;;13.43;10.07;;;;;;;;;;4883907;29;20035;-79
2021/04/20 15:10:15;;;;;;;14.98;11.63;;;;;;;;;;4907106;29;20138;-79
2021/04/20 15:13:04;;;;;;;13.85;10.63;;;;;;;;;;4903807;29;20048;-79
2021/04/20 15:15:53;;;;;;;13.93;11.05;;;;;;;;;;4892527;29;20036;-79
2021/04/20 15:18:43;;;;;;;14.80;10.85;;;;;;;;;;4908576;29;20028;-79
2021/04/20 15:21:31;;;;;;;15.02;11.18;;;;;;;;;;4891136;29;20229;-81
2021/04/20 15:24:22;;;;;;;15.80;11.20;;;;;;;;;;4885249;29;20028;-79
2021/04/20 15:27:23;;;;;;;15.45;11.18;;;;;;;;;;4891417;29;20024;-77
2021/04/20 15:30:11;;;;;;;12.73;9.70;;;;;;;;;;4898696;29;20160;-77
2021/04/20 15:33:01;;;;;;;16.48;10.40;;;;;;;;;;4890793;29;20176;-80
2021/04/20 15:35:54;;;;;;;13.18;9.85;;;;;;;;;;4885107;29;20111;-78
2021/04/20 15:38:47;;;;;;;12.73;10.00;;;;;;;;;;4890276;29;20406;-78
2021/04/20 15:41:46;;;;;;;13.10;8.77;;;;;;;;;;4891656;29;20483;-80
2021/04/20 15:44:33;;;;;;;16.38;12.07;;;;;;;;;;4893671;29;20027;-85
2021/04/20 15:47:21;;;;;;;11.50;9.27;;;;;;;;;;4889302;29;20034;-80
2021/04/20 15:50:07;;;;;;;13.50;10.30;;;;;;;;;;4888393;29;20235;-80
2021/04/20 15:52:53;;;;;;;16.35;9.93;;;;;;;;;;4882354;29;20032;-80
2021/04/20 15:55:39;;;;;;;15.63;10.48;;;;;;;;;;4891824;29;20103;-78
2021/04/20 15:58:25;;;;;;;16.38;10.70;;;;;;;;;;4886982;29;20020;-79
2021/04/20 16:01:11;;;;;;;16.27;10.50;;;;;;;;;;4888186;29;20150;-77
2021/04/20 16:04:00;;;;;;;35.78;31.10;;;;;;;;;;4893398;29;20024;-79
2021/04/20 16:06:48;;;;;;;16.27;11.95;;;;;;;;;;4886089;29;20040;-79
2021/04/20 16:09:43;;;;;;;13.20;10.13;;;;;;;;;;4889059;29;20035;-78
2021/04/20 16:12:32;;;;;;;11.88;8.82;;;;;;;;;;4883644;29;20040;-80
2021/04/20 16:15:20;;;;;;;13.90;10.48;;;;;;;;;;4892327;29;20036;-81
2021/04/20 16:18:06;;;;;;;13.38;10.00;;;;;;;;;;4888180;29;20595;-78
2021/04/20 16:20:55;;;;;;;13.90;10.15;;;;;;;;;;4894770;29;20048;-79
2021/04/20 16:23:41;;;;;;;14.02;10.13;;;;;;;;;;4894718;29;20032;-78
2021/04/20 16:26:28;;;;;;;14.43;10.85;;;;;;;;;;4887416;29;20078;-78
2021/04/20 16:29:17;;;;;;;15.52;10.60;;;;;;;;;;4887205;29;20059;-79